createdAt,value
2019-05-15T00:00:02.626Z,4.80
2019-05-15T00:01:02.639Z,4.83
2019-05-15T00:02:02.596Z,4.77
2019-05-15T00:03:02.587Z,4.77
2019-05-15T00:04:02.615Z,4.69
2019-05-15T00:05:02.570Z,4.68
2019-05-15T00:06:02.569Z,4.62
2019-05-15T00:07:02.547Z,4.56
2019-05-15T00:08:02.536Z,4.57
2019-05-15T00:09:02.528Z,4.51
2019-05-15T00:10:02.517Z,4.50
2019-05-15T00:11:02.513Z,4.50
2019-05-15T00:12:02.495Z,4.54
2019-05-15T00:13:02.488Z,4.50
2019-05-15T00:14:02.477Z,4.57
2019-05-15T00:15:02.459Z,4.64
2019-05-15T00:16:02.454Z,4.65
2019-05-15T00:17:02.434Z,4.68
2019-05-15T00:18:02.425Z,4.68
2019-05-15T00:19:02.414Z,4.74
2019-05-15T00:20:02.414Z,4.68
2019-05-15T00:21:02.405Z,4.64
2019-05-15T00:22:02.383Z,4.67
2019-05-15T00:23:02.371Z,4.69
2019-05-15T00:24:02.373Z,4.68
2019-05-15T00:25:02.353Z,4.64
2019-05-15T00:26:02.351Z,4.64
2019-05-15T00:27:02.330Z,4.64
2019-05-15T00:28:02.317Z,4.64
2019-05-15T00:29:12.834Z,4.59
2019-05-15T00:30:03.294Z,4.62
2019-05-15T00:31:02.304Z,4.64
2019-05-15T00:32:02.272Z,4.59
2019-05-15T00:33:02.261Z,4.47
2019-05-15T00:34:02.260Z,4.42
2019-05-15T00:35:02.240Z,4.38
2019-05-15T00:36:02.241Z,4.29
2019-05-15T00:37:02.221Z,4.24
2019-05-15T00:38:02.211Z,4.21
2019-05-15T00:39:02.191Z,4.14
2019-05-15T00:40:02.188Z,4.08
2019-05-15T00:41:02.187Z,4.07
2019-05-15T00:42:02.162Z,4.08
2019-05-15T00:43:02.157Z,4.08
2019-05-15T00:44:02.139Z,4.07
2019-05-15T00:45:02.132Z,4.04
2019-05-15T00:46:02.129Z,3.98
2019-05-15T00:47:02.112Z,3.95
2019-05-15T00:48:02.099Z,3.98
2019-05-15T00:49:02.091Z,3.90
2019-05-15T00:50:02.091Z,3.88
2019-05-15T00:51:02.242Z,3.86
2019-05-15T00:52:02.063Z,3.80
2019-05-15T00:53:02.038Z,3.78
2019-05-15T00:54:02.040Z,3.77
2019-05-15T00:55:02.028Z,3.74
2019-05-15T00:56:02.008Z,3.77
2019-05-15T00:57:02.006Z,3.78
2019-05-15T00:58:01.988Z,3.75
2019-05-15T00:59:01.989Z,3.70
2019-05-15T01:00:01.975Z,3.63
2019-05-15T01:01:01.947Z,3.64
2019-05-15T01:02:01.959Z,3.60
2019-05-15T01:03:01.926Z,3.64
2019-05-15T01:04:01.919Z,3.70
2019-05-15T01:05:01.928Z,3.75
2019-05-15T01:06:01.904Z,3.77
2019-05-15T01:07:01.906Z,3.77
2019-05-15T01:08:01.877Z,3.70
2019-05-15T01:09:01.866Z,3.70
2019-05-15T01:10:01.857Z,3.72
2019-05-15T01:11:01.845Z,3.71
2019-05-15T01:12:01.845Z,3.71
2019-05-15T01:13:01.823Z,3.71
2019-05-15T01:14:01.827Z,3.68
2019-05-15T01:15:01.803Z,3.57
2019-05-15T01:16:01.793Z,3.53
2019-05-15T01:17:01.793Z,3.52
2019-05-15T01:18:01.776Z,3.46
2019-05-15T01:19:01.754Z,3.44
2019-05-15T01:20:01.765Z,3.37
2019-05-15T01:21:01.733Z,3.34
2019-05-15T01:22:01.743Z,3.30
2019-05-15T01:23:01.713Z,3.25
2019-05-15T01:24:01.703Z,3.22
2019-05-15T01:25:01.691Z,3.26
2019-05-15T01:26:01.671Z,3.26
2019-05-15T01:27:01.682Z,3.26
2019-05-15T01:28:01.665Z,3.25
2019-05-15T01:29:01.646Z,3.26
2019-05-15T01:30:01.641Z,3.26
2019-05-15T01:31:01.621Z,3.33
2019-05-15T01:32:01.634Z,3.37
2019-05-15T01:33:01.612Z,3.44
2019-05-15T01:34:01.593Z,3.52
2019-05-15T01:35:01.580Z,3.56
2019-05-15T01:36:01.570Z,3.56
2019-05-15T01:37:01.581Z,3.59
2019-05-15T01:38:01.549Z,3.63
2019-05-15T01:39:01.545Z,3.60
2019-05-15T01:40:01.527Z,3.59
2019-05-15T01:41:01.527Z,3.54
2019-05-15T01:42:01.528Z,3.56
2019-05-15T01:43:01.501Z,3.56
2019-05-15T01:44:01.488Z,3.52
2019-05-15T01:45:01.469Z,3.50
2019-05-15T01:46:01.468Z,3.54
2019-05-15T01:47:01.448Z,3.50
2019-05-15T01:48:01.448Z,3.45
2019-05-15T01:49:01.431Z,3.41
2019-05-15T01:50:01.417Z,3.34
2019-05-15T01:51:01.406Z,3.28
2019-05-15T01:52:01.396Z,3.28
2019-05-15T01:53:01.397Z,3.20
2019-05-15T01:54:01.376Z,3.16
2019-05-15T01:55:01.366Z,3.13
2019-05-15T01:56:01.355Z,3.13
2019-05-15T01:57:01.346Z,3.12
2019-05-15T01:58:01.346Z,3.22
2019-05-15T01:59:01.328Z,3.25
2019-05-15T02:00:01.319Z,3.23
2019-05-15T02:01:01.295Z,3.20
2019-05-15T02:02:01.295Z,3.10
2019-05-15T02:03:01.284Z,3.05
2019-05-15T02:04:01.266Z,2.98
2019-05-15T02:05:01.265Z,2.92
2019-05-15T02:06:01.243Z,2.86
2019-05-15T02:07:01.232Z,2.86
2019-05-15T02:08:01.241Z,2.81
2019-05-15T02:09:01.213Z,2.83
2019-05-15T02:10:01.205Z,2.81
2019-05-15T02:11:01.191Z,2.84
2019-05-15T02:12:01.180Z,2.81
2019-05-15T02:13:01.182Z,2.79
2019-05-15T02:14:01.162Z,2.76
2019-05-15T02:15:01.162Z,2.73
2019-05-15T02:16:01.141Z,2.69
2019-05-15T02:17:01.124Z,2.68
2019-05-15T02:18:01.129Z,2.65
2019-05-15T02:19:01.105Z,2.61
2019-05-15T02:20:01.094Z,2.59
2019-05-15T02:21:01.083Z,2.62
2019-05-15T02:22:01.074Z,2.61
2019-05-15T02:23:01.068Z,2.61
2019-05-15T02:24:01.052Z,2.62
2019-05-15T02:25:01.043Z,2.58
2019-05-15T02:26:01.029Z,2.55
2019-05-15T02:27:01.018Z,2.53
2019-05-15T02:28:01.016Z,2.55
2019-05-15T02:29:00.989Z,2.50
2019-05-15T02:30:16.787Z,2.48
2019-05-15T02:31:01.970Z,2.44
2019-05-15T02:32:00.962Z,2.44
2019-05-15T02:33:00.971Z,2.43
2019-05-15T02:34:00.946Z,2.44
2019-05-15T02:35:00.938Z,2.44
2019-05-15T02:36:00.917Z,2.43
2019-05-15T02:37:00.909Z,2.44
2019-05-15T02:38:00.908Z,2.48
2019-05-15T02:39:00.878Z,2.48
2019-05-15T02:40:00.878Z,2.45
2019-05-15T02:41:00.866Z,2.43
2019-05-15T02:42:00.857Z,2.43
2019-05-15T02:43:00.857Z,2.45
2019-05-15T02:44:00.837Z,2.45
2019-05-15T02:45:00.816Z,2.43
2019-05-15T02:46:00.926Z,2.37
2019-05-15T02:47:00.796Z,2.38
2019-05-15T02:48:00.800Z,2.37
2019-05-15T02:49:00.797Z,2.37
2019-05-15T02:50:00.766Z,2.43
2019-05-15T02:51:00.756Z,2.58
2019-05-15T02:52:00.757Z,2.56
2019-05-15T02:53:00.902Z,2.50
2019-05-15T02:54:00.732Z,2.41
2019-05-15T02:55:00.709Z,2.38
2019-05-15T02:56:00.699Z,2.33
2019-05-15T02:57:00.685Z,2.27
2019-05-15T02:58:00.674Z,2.27
2019-05-15T02:59:00.682Z,2.25
2019-05-15T03:00:00.656Z,2.22
2019-05-15T03:01:00.645Z,2.20
2019-05-15T03:02:00.644Z,2.15
2019-05-15T03:03:00.626Z,2.12
2019-05-15T03:04:00.623Z,2.12
2019-05-15T03:05:00.609Z,2.12
2019-05-15T03:06:00.594Z,2.15
2019-05-15T03:07:00.635Z,2.14
2019-05-15T03:08:00.567Z,2.12
2019-05-15T03:09:00.564Z,2.12
2019-05-15T03:10:00.554Z,2.09
2019-05-15T03:11:09.788Z,2.05
2019-05-15T03:12:00.518Z,2.02
2019-05-15T03:13:00.507Z,2.00
2019-05-15T03:14:00.508Z,2.00
2019-05-15T03:15:00.487Z,2.05
2019-05-15T03:16:00.490Z,2.07
2019-05-15T03:17:00.466Z,2.04
2019-05-15T03:18:00.582Z,2.05
2019-05-15T03:19:00.467Z,2.07
2019-05-15T03:20:00.482Z,2.14
2019-05-15T03:21:00.599Z,2.19
2019-05-15T03:22:00.436Z,2.19
2019-05-15T03:23:00.397Z,2.19
2019-05-15T03:24:00.404Z,2.22
2019-05-15T03:25:00.378Z,2.19
2019-05-15T03:26:04.018Z,2.14
2019-05-15T03:27:00.367Z,2.14
2019-05-15T03:28:00.347Z,2.15
2019-05-15T03:29:00.365Z,2.15
2019-05-15T03:30:00.349Z,2.11
2019-05-15T03:31:17.833Z,2.11
2019-05-15T03:32:17.875Z,2.08
2019-05-15T03:33:09.162Z,2.09
2019-05-15T03:34:03.422Z,2.09
2019-05-15T03:35:04.777Z,2.08
2019-05-15T03:36:03.453Z,2.05
2019-05-15T03:37:03.202Z,2.01
2019-05-15T03:38:00.241Z,2.02
2019-05-15T03:39:00.242Z,2.01
2019-05-15T03:40:00.257Z,2.01
2019-05-15T03:41:00.204Z,2.01
2019-05-15T03:42:00.192Z,2.05
2019-05-15T03:43:00.191Z,2.08
2019-05-15T03:44:00.181Z,2.09
2019-05-15T03:45:00.163Z,2.05
2019-05-15T03:46:01.555Z,2.01
2019-05-15T03:47:00.140Z,2.00
2019-05-15T03:48:00.130Z,1.95
2019-05-15T03:49:00.627Z,2.04
2019-05-15T03:50:00.280Z,2.04
2019-05-15T03:51:00.097Z,2.00
2019-05-15T03:52:00.101Z,2.00
2019-05-15T03:53:00.077Z,2.00
2019-05-15T03:54:00.453Z,1.98
2019-05-15T03:55:00.067Z,1.93
2019-05-15T03:56:00.048Z,1.98
2019-05-15T03:57:00.037Z,2.00
2019-05-15T03:58:00.019Z,2.01
2019-05-15T03:59:00.043Z,2.00
2019-05-15T04:00:00.023Z,2.00
2019-05-15T04:01:00.458Z,2.00
2019-05-15T04:02:00.164Z,1.98
2019-05-15T04:02:59.973Z,1.93
2019-05-15T04:04:00.043Z,1.92
2019-05-15T04:05:01.602Z,1.89
2019-05-15T04:06:00.672Z,1.86
2019-05-15T04:07:00.017Z,1.85
2019-05-15T04:08:00.146Z,1.85
2019-05-15T04:08:59.907Z,1.85
2019-05-15T04:09:59.894Z,1.89
2019-05-15T04:10:59.881Z,1.89
2019-05-15T04:12:00.171Z,1.89
2019-05-15T04:13:00.193Z,1.86
2019-05-15T04:13:59.843Z,1.90
2019-05-15T04:14:59.877Z,2.05
2019-05-15T04:15:59.825Z,2.11
2019-05-15T04:16:59.835Z,2.11
2019-05-15T04:18:00.524Z,2.08
2019-05-15T04:18:59.788Z,2.05
2019-05-15T04:19:59.790Z,2.02
2019-05-15T04:21:00.323Z,1.95
2019-05-15T04:22:00.227Z,1.90
2019-05-15T04:23:00.541Z,1.88
2019-05-15T04:23:59.753Z,1.89
2019-05-15T04:24:59.742Z,1.85
2019-05-15T04:25:59.712Z,1.83
2019-05-15T04:27:00.047Z,1.82
2019-05-15T04:27:59.719Z,1.85
2019-05-15T04:29:00.238Z,1.85
2019-05-15T04:29:59.681Z,1.83
2019-05-15T04:30:59.839Z,1.86
2019-05-15T04:32:05.331Z,1.86
2019-05-15T04:33:00.631Z,1.85
2019-05-15T04:33:59.643Z,1.83
2019-05-15T04:34:59.705Z,1.88
2019-05-15T04:35:59.602Z,1.88
2019-05-15T04:36:59.614Z,1.88
2019-05-15T04:37:59.910Z,1.90
2019-05-15T04:38:59.570Z,2.01
2019-05-15T04:39:59.856Z,2.01
2019-05-15T04:40:59.551Z,1.95
2019-05-15T04:41:59.540Z,2.01
2019-05-15T04:42:59.532Z,2.01
2019-05-15T04:43:59.825Z,2.04
2019-05-15T04:44:59.768Z,2.01
2019-05-15T04:46:02.988Z,2.01
2019-05-15T04:46:59.787Z,2.04
2019-05-15T04:47:59.467Z,2.01
2019-05-15T04:48:59.767Z,2.00
2019-05-15T04:49:59.461Z,2.02
2019-05-15T04:50:59.439Z,2.05
2019-05-15T04:52:03.353Z,2.05
2019-05-15T04:52:59.479Z,2.05
2019-05-15T04:53:59.400Z,2.07
2019-05-15T04:54:59.938Z,2.07
2019-05-15T04:55:59.926Z,2.07
2019-05-15T04:56:59.570Z,2.05
2019-05-15T04:57:59.458Z,2.01
2019-05-15T04:59:00.208Z,2.01
2019-05-15T04:59:59.368Z,2.00
2019-05-15T05:01:00.190Z,2.00
2019-05-15T05:02:16.240Z,2.00
2019-05-15T05:03:00.304Z,2.02
2019-05-15T05:03:59.316Z,2.00
2019-05-15T05:04:59.277Z,1.98
2019-05-15T05:05:59.461Z,1.98
2019-05-15T05:06:59.258Z,1.95
2019-05-15T05:07:59.702Z,1.98
2019-05-15T05:08:59.623Z,1.98
2019-05-15T05:09:59.598Z,2.01
2019-05-15T05:10:59.489Z,2.07
2019-05-15T05:11:59.203Z,2.08
2019-05-15T05:12:59.221Z,2.08
2019-05-15T05:13:59.297Z,2.12
2019-05-15T05:14:59.165Z,2.12
2019-05-15T05:15:59.194Z,2.14
2019-05-15T05:16:59.383Z,2.14
2019-05-15T05:17:59.130Z,2.14
2019-05-15T05:18:59.485Z,2.18
2019-05-15T05:19:59.109Z,2.20
2019-05-15T05:20:59.114Z,2.23
2019-05-15T05:21:59.108Z,2.27
2019-05-15T05:22:59.079Z,2.26
2019-05-15T05:23:59.067Z,2.27
2019-05-15T05:24:59.059Z,2.30
2019-05-15T05:25:59.049Z,2.29
2019-05-15T05:26:59.042Z,2.29
2019-05-15T05:27:59.022Z,2.27
2019-05-15T05:29:01.444Z,2.26
2019-05-15T05:29:58.997Z,2.26
2019-05-15T05:30:59.041Z,2.27
2019-05-15T05:31:58.988Z,2.27
2019-05-15T05:32:58.966Z,2.30
2019-05-15T05:33:58.958Z,2.30
2019-05-15T05:34:59.032Z,2.32
2019-05-15T05:35:58.946Z,2.38
2019-05-15T05:36:59.064Z,2.43
2019-05-15T05:37:58.915Z,2.45
2019-05-15T05:38:58.896Z,2.44
2019-05-15T05:39:58.885Z,2.45
2019-05-15T05:40:58.896Z,2.48
2019-05-15T05:41:58.899Z,2.48
2019-05-15T05:42:59.594Z,2.55
2019-05-15T05:43:58.844Z,2.56
2019-05-15T05:44:58.833Z,2.62
2019-05-15T05:45:58.834Z,2.69
2019-05-15T05:46:58.821Z,2.71
2019-05-15T05:47:58.816Z,2.77
2019-05-15T05:48:58.792Z,2.89
2019-05-15T05:49:58.784Z,2.97
2019-05-15T05:50:58.784Z,2.99
2019-05-15T05:51:58.855Z,3.04
2019-05-15T05:52:58.849Z,3.10
2019-05-15T05:53:59.060Z,3.16
2019-05-15T05:54:58.722Z,3.19
2019-05-15T05:55:58.722Z,3.25
2019-05-15T05:56:58.728Z,3.31
2019-05-15T05:57:58.694Z,3.37
2019-05-15T05:58:58.804Z,3.44
2019-05-15T05:59:58.661Z,3.46
2019-05-15T06:00:58.795Z,3.50
2019-05-15T06:01:59.112Z,3.53
2019-05-15T06:02:59.142Z,3.59
2019-05-15T06:03:58.620Z,3.62
2019-05-15T06:04:58.620Z,3.70
2019-05-15T06:05:59.229Z,3.75
2019-05-15T06:07:07.075Z,3.84
2019-05-15T06:07:59.579Z,3.96
2019-05-15T06:08:58.596Z,4.00
2019-05-15T06:09:58.561Z,4.13
2019-05-15T06:10:58.746Z,4.26
2019-05-15T06:11:58.539Z,4.35
2019-05-15T06:12:58.814Z,4.46
2019-05-15T06:13:58.590Z,4.57
2019-05-15T06:14:58.508Z,4.75
2019-05-15T06:15:59.055Z,4.88
2019-05-15T06:16:58.941Z,4.99
2019-05-15T06:17:58.600Z,5.09
2019-05-15T06:18:58.745Z,5.26
2019-05-15T06:19:58.684Z,5.40
2019-05-15T06:20:58.880Z,5.47
2019-05-15T06:22:01.062Z,5.49
2019-05-15T06:22:58.423Z,5.56
2019-05-15T06:24:04.716Z,5.58
2019-05-15T06:24:59.403Z,5.60
2019-05-15T06:25:59.257Z,5.63
2019-05-15T06:26:58.748Z,5.66
2019-05-15T06:27:58.427Z,5.69
2019-05-15T06:28:58.683Z,5.77
2019-05-15T06:29:58.347Z,5.80
2019-05-15T06:31:00.663Z,5.83
2019-05-15T06:31:58.776Z,5.87
2019-05-15T06:33:08.369Z,5.92
2019-05-15T06:33:59.302Z,5.99
2019-05-15T06:34:58.284Z,6.05
2019-05-15T06:35:59.260Z,6.10
2019-05-15T06:36:58.841Z,6.16
2019-05-15T06:37:59.128Z,6.21
2019-05-15T06:38:59.059Z,6.27
2019-05-15T06:39:58.857Z,6.28
2019-05-15T06:40:58.376Z,6.32
2019-05-15T06:41:58.854Z,6.42
2019-05-15T06:42:59.314Z,6.54
2019-05-15T06:43:58.922Z,6.63
2019-05-15T06:44:58.916Z,6.68
2019-05-15T06:45:58.558Z,6.72
2019-05-15T06:46:58.775Z,6.73
2019-05-15T06:48:01.373Z,6.76
2019-05-15T06:48:58.281Z,6.78
2019-05-15T06:49:58.134Z,6.83
2019-05-15T06:50:58.136Z,6.86
2019-05-15T06:51:58.256Z,6.90
2019-05-15T06:52:58.736Z,6.94
2019-05-15T06:53:58.384Z,6.99
2019-05-15T06:54:59.267Z,7.01
2019-05-15T06:55:58.606Z,7.05
2019-05-15T06:56:58.461Z,7.08
2019-05-15T06:57:58.515Z,7.09
2019-05-15T06:58:58.282Z,7.14
2019-05-15T06:59:58.060Z,7.14
2019-05-15T07:00:59.319Z,7.14
2019-05-15T07:01:59.431Z,7.12
2019-05-15T07:02:58.393Z,7.11
2019-05-15T07:03:59.002Z,7.14
2019-05-15T07:04:58.475Z,7.18
2019-05-15T07:05:59.762Z,7.27
2019-05-15T07:06:58.428Z,7.30
2019-05-15T07:07:58.486Z,7.36
2019-05-15T07:08:58.595Z,7.34
2019-05-15T07:09:58.323Z,7.37
2019-05-15T07:10:58.019Z,7.32
2019-05-15T07:11:59.094Z,7.34
2019-05-15T07:12:58.513Z,7.37
2019-05-15T07:13:58.138Z,7.37
2019-05-15T07:14:58.322Z,7.34
2019-05-15T07:15:58.512Z,7.37
2019-05-15T07:16:59.273Z,7.44
2019-05-15T07:17:58.105Z,7.52
2019-05-15T07:18:58.885Z,7.55
2019-05-15T07:19:59.304Z,7.57
2019-05-15T07:20:58.171Z,7.62
2019-05-15T07:21:58.160Z,7.67
2019-05-15T07:22:58.631Z,7.71
2019-05-15T07:23:58.364Z,7.71
2019-05-15T07:24:58.284Z,7.73
2019-05-15T07:25:58.725Z,7.70
2019-05-15T07:26:59.102Z,7.71
2019-05-15T07:27:58.211Z,7.71
2019-05-15T07:28:59.602Z,7.73
2019-05-15T07:29:58.396Z,7.74
2019-05-15T07:30:58.364Z,7.74
2019-05-15T07:31:58.589Z,7.77
2019-05-15T07:32:58.346Z,7.77
2019-05-15T07:33:59.821Z,7.88
2019-05-15T07:34:57.907Z,7.94
2019-05-15T07:35:59.039Z,7.94
2019-05-15T07:36:59.168Z,7.94
2019-05-15T07:37:58.648Z,7.92
2019-05-15T07:38:58.092Z,7.89
2019-05-15T07:39:59.138Z,7.86
2019-05-15T07:41:03.836Z,7.88
2019-05-15T07:41:58.593Z,7.88
2019-05-15T07:42:58.691Z,7.88
2019-05-15T07:43:58.603Z,7.88
2019-05-15T07:44:58.801Z,7.88
2019-05-15T07:45:59.006Z,7.88
2019-05-15T07:46:58.363Z,7.89
2019-05-15T07:47:58.494Z,7.91
2019-05-15T07:48:58.341Z,7.95
2019-05-15T07:49:59.042Z,8.00
2019-05-15T07:50:59.463Z,8.06
2019-05-15T07:51:59.181Z,8.09
2019-05-15T07:52:59.044Z,8.13
2019-05-15T07:53:58.324Z,8.17
2019-05-15T07:54:58.156Z,8.20
2019-05-15T07:56:01.190Z,8.14
2019-05-15T07:56:58.159Z,8.17
2019-05-15T07:57:59.201Z,8.20
2019-05-15T07:58:58.656Z,8.24
2019-05-15T07:59:58.801Z,8.32
2019-05-15T08:00:58.973Z,8.47
2019-05-15T08:01:58.140Z,8.57
2019-05-15T08:02:58.643Z,8.64
2019-05-15T08:04:14.359Z,8.70
2019-05-15T08:04:58.366Z,8.78
2019-05-15T08:06:02.125Z,8.82
2019-05-15T08:06:59.157Z,8.82
2019-05-15T08:07:58.188Z,8.79
2019-05-15T08:08:59.223Z,8.79
2019-05-15T08:09:59.197Z,8.75
2019-05-15T08:10:57.916Z,8.75
2019-05-15T08:12:00.167Z,8.70
2019-05-15T08:12:58.309Z,8.68
2019-05-15T08:13:58.152Z,8.67
2019-05-15T08:14:58.283Z,8.65
2019-05-15T08:15:57.994Z,8.65
2019-05-15T08:16:59.175Z,8.65
2019-05-15T08:18:05.536Z,8.70
2019-05-15T08:18:58.237Z,8.75
2019-05-15T08:19:58.249Z,8.79
2019-05-15T08:20:58.639Z,8.79
2019-05-15T08:21:58.146Z,8.82
2019-05-15T08:22:58.222Z,8.83
2019-05-15T08:23:59.073Z,8.85
2019-05-15T08:24:59.184Z,8.83
2019-05-15T08:25:57.889Z,8.89
2019-05-15T08:26:58.111Z,9.03
2019-05-15T08:27:58.751Z,9.12
2019-05-15T08:28:57.914Z,9.13
2019-05-15T08:29:58.120Z,9.15
2019-05-15T08:30:58.314Z,9.16
2019-05-15T08:31:59.036Z,9.20
2019-05-15T08:32:58.918Z,9.17
2019-05-15T08:34:12.290Z,9.16
2019-05-15T08:34:58.642Z,9.16
2019-05-15T08:35:58.774Z,9.16
2019-05-15T08:36:59.031Z,9.13
2019-05-15T08:37:58.130Z,9.17
2019-05-15T08:38:59.091Z,9.22
2019-05-15T08:39:59.424Z,9.24
2019-05-15T08:40:59.045Z,9.27
2019-05-15T08:41:58.457Z,9.31
2019-05-15T08:43:01.868Z,9.32
2019-05-15T08:43:58.050Z,9.34
2019-05-15T08:44:58.377Z,9.32
2019-05-15T08:45:58.636Z,9.26
2019-05-15T08:46:58.779Z,9.17
2019-05-15T08:47:58.550Z,9.10
2019-05-15T08:48:58.347Z,9.08
2019-05-15T08:49:57.933Z,9.01
2019-05-15T08:50:57.875Z,9.00
2019-05-15T08:51:58.411Z,8.98
2019-05-15T08:52:57.920Z,8.98
2019-05-15T08:53:58.003Z,8.98
2019-05-15T08:54:59.142Z,9.00
2019-05-15T08:55:58.744Z,9.00
2019-05-15T08:56:59.212Z,9.03
2019-05-15T08:58:07.556Z,9.06
2019-05-15T08:58:58.118Z,9.10
2019-05-15T08:59:58.333Z,9.16
2019-05-15T09:00:58.727Z,9.19
2019-05-15T09:01:58.245Z,9.20
2019-05-15T09:02:58.219Z,9.22
2019-05-15T09:03:58.202Z,9.27
2019-05-15T09:04:58.025Z,9.31
2019-05-15T09:05:58.795Z,9.35
2019-05-15T09:07:01.056Z,9.38
2019-05-15T09:07:58.053Z,9.40
2019-05-15T09:08:58.502Z,9.42
2019-05-15T09:09:58.070Z,9.48
2019-05-15T09:10:58.712Z,9.56
2019-05-15T09:11:58.483Z,9.62
2019-05-15T09:12:58.648Z,9.63
2019-05-15T09:13:59.327Z,9.62
2019-05-15T09:14:58.186Z,9.65
2019-05-15T09:15:58.866Z,9.65
2019-05-15T09:16:58.254Z,9.63
2019-05-15T09:18:11.045Z,9.63
2019-05-15T09:18:59.169Z,9.77
2019-05-15T09:19:58.746Z,9.86
2019-05-15T09:20:59.097Z,9.88
2019-05-15T09:21:58.501Z,9.89
2019-05-15T09:22:58.283Z,9.86
2019-05-15T09:23:58.981Z,9.88
2019-05-15T09:24:58.823Z,9.86
2019-05-15T09:25:57.872Z,9.85
2019-05-15T09:26:59.229Z,9.85
2019-05-15T09:27:57.969Z,9.96
2019-05-15T09:28:58.488Z,10.04
2019-05-15T09:29:59.021Z,10.07
2019-05-15T09:30:58.851Z,10.09
2019-05-15T09:31:58.678Z,10.16
2019-05-15T09:32:58.727Z,10.20
2019-05-15T09:33:58.556Z,10.24
2019-05-15T09:34:59.010Z,10.20
2019-05-15T09:35:58.335Z,10.14
2019-05-15T09:36:59.762Z,10.07
2019-05-15T09:37:58.342Z,10.02
2019-05-15T09:38:58.518Z,10.02
2019-05-15T09:39:58.391Z,10.09
2019-05-15T09:40:58.500Z,10.20
2019-05-15T09:41:57.931Z,10.28
2019-05-15T09:42:57.813Z,10.32
2019-05-15T09:43:57.900Z,10.34
2019-05-15T09:44:58.190Z,10.32
2019-05-15T09:45:58.275Z,10.28
2019-05-15T09:46:58.479Z,10.29
2019-05-15T09:47:58.658Z,10.38
2019-05-15T09:48:59.063Z,10.44
2019-05-15T09:49:56.342Z,10.49
2019-05-15T09:50:58.535Z,10.55
2019-05-15T09:51:58.503Z,10.54
2019-05-15T09:52:58.633Z,10.55
2019-05-15T09:53:59.413Z,10.60
2019-05-15T09:54:59.111Z,10.70
2019-05-15T09:55:56.263Z,10.84
2019-05-15T09:56:58.376Z,10.94
2019-05-15T09:57:58.875Z,10.99
2019-05-15T09:58:58.168Z,10.98
2019-05-15T09:59:58.665Z,10.93
2019-05-15T10:00:56.223Z,10.90
2019-05-15T10:01:58.693Z,10.88
2019-05-15T10:02:56.193Z,10.86
2019-05-15T10:03:56.182Z,10.75
2019-05-15T10:05:06.154Z,10.76
2019-05-15T10:05:57.170Z,10.75
2019-05-15T10:06:56.142Z,10.81
2019-05-15T10:07:56.134Z,10.78
2019-05-15T10:08:56.130Z,10.75
2019-05-15T10:09:56.131Z,10.65
2019-05-15T10:10:56.100Z,10.60
2019-05-15T10:11:56.103Z,10.44
2019-05-15T10:12:59.357Z,10.39
2019-05-15T10:13:58.369Z,10.35
2019-05-15T10:14:59.037Z,10.36
2019-05-15T10:15:58.429Z,10.38
2019-05-15T10:16:58.224Z,10.35
2019-05-15T10:17:59.480Z,10.35
2019-05-15T10:18:58.180Z,10.38
2019-05-15T10:19:58.207Z,10.34
2019-05-15T10:20:58.139Z,10.34
2019-05-15T10:21:55.980Z,10.35
2019-05-15T10:22:55.974Z,10.36
2019-05-15T10:23:58.783Z,10.35
2019-05-15T10:24:58.579Z,10.34
2019-05-15T10:25:55.939Z,10.38
2019-05-15T10:26:58.007Z,10.39
2019-05-15T10:27:57.940Z,10.39
2019-05-15T10:28:58.277Z,10.35
2019-05-15T10:29:55.909Z,10.38
2019-05-15T10:30:55.897Z,10.54
2019-05-15T10:31:55.877Z,10.66
2019-05-15T10:32:55.859Z,10.73
2019-05-15T10:33:58.121Z,10.81
2019-05-15T10:34:55.849Z,10.86
2019-05-15T10:35:55.838Z,10.78
2019-05-15T10:36:55.827Z,10.81
2019-05-15T10:37:55.816Z,10.80
2019-05-15T10:38:55.815Z,10.75
2019-05-15T10:39:58.269Z,10.72
2019-05-15T10:41:08.487Z,10.75
2019-05-15T10:41:56.768Z,10.83
2019-05-15T10:42:55.758Z,10.93
2019-05-15T10:43:56.861Z,11.06
2019-05-15T10:44:55.746Z,11.19
2019-05-15T10:45:55.716Z,11.19
2019-05-15T10:46:58.354Z,11.21
2019-05-15T10:47:58.407Z,11.30
2019-05-15T10:48:58.414Z,11.36
2019-05-15T10:49:55.697Z,11.42
2019-05-15T10:51:01.369Z,11.39
2019-05-15T10:51:56.655Z,11.44
2019-05-15T10:52:55.639Z,11.49
2019-05-15T10:53:55.625Z,11.45
2019-05-15T10:54:58.153Z,11.38
2019-05-15T10:55:59.491Z,11.30
2019-05-15T10:56:55.596Z,11.20
2019-05-15T10:57:55.597Z,11.13
2019-05-15T10:58:55.566Z,11.09
2019-05-15T10:59:55.564Z,11.02
2019-05-15T11:00:55.560Z,11.03
2019-05-15T11:01:55.543Z,11.05
2019-05-15T11:02:57.846Z,11.01
2019-05-15T11:03:55.514Z,11.09
2019-05-15T11:04:57.741Z,11.23
2019-05-15T11:05:57.876Z,11.26
2019-05-15T11:06:55.475Z,11.26
2019-05-15T11:07:55.463Z,11.24
2019-05-15T11:08:58.205Z,11.31
2019-05-15T11:09:58.059Z,11.42
2019-05-15T11:10:58.371Z,11.49
2019-05-15T11:11:58.173Z,11.42
2019-05-15T11:12:55.414Z,11.44
2019-05-15T11:14:00.315Z,11.42
2019-05-15T11:14:56.420Z,11.42
2019-05-15T11:15:55.386Z,11.30
2019-05-15T11:16:55.363Z,11.33
2019-05-15T11:17:55.353Z,11.31
2019-05-15T11:18:55.345Z,11.41
2019-05-15T11:19:55.333Z,11.48
2019-05-15T11:20:55.334Z,11.54
2019-05-15T11:21:55.311Z,11.69
2019-05-15T11:22:55.312Z,11.85
2019-05-15T11:23:55.292Z,11.94
2019-05-15T11:24:55.272Z,11.97
2019-05-15T11:25:55.270Z,12.03
2019-05-15T11:26:56.206Z,12.11
2019-05-15T11:27:55.233Z,12.19
2019-05-15T11:28:55.232Z,12.31
2019-05-15T11:29:55.210Z,12.33
2019-05-15T11:30:55.211Z,12.23
2019-05-15T11:31:55.189Z,12.05
2019-05-15T11:32:55.209Z,11.84
2019-05-15T11:33:55.164Z,11.63
2019-05-15T11:34:55.171Z,11.46
2019-05-15T11:36:04.204Z,11.35
2019-05-15T11:36:59.098Z,11.35
2019-05-15T11:37:56.873Z,11.39
2019-05-15T11:38:55.109Z,11.44
2019-05-15T11:39:55.108Z,11.38
2019-05-15T11:40:55.090Z,11.23
2019-05-15T11:41:55.070Z,11.23
2019-05-15T11:42:55.069Z,11.28
2019-05-15T11:43:55.060Z,11.39
2019-05-15T11:44:55.040Z,11.53
2019-05-15T11:45:55.029Z,11.75
2019-05-15T11:46:55.009Z,11.94
2019-05-15T11:47:55.007Z,11.93
2019-05-15T11:48:54.997Z,11.87
2019-05-15T11:49:54.979Z,11.90
2019-05-15T11:50:54.981Z,11.88
2019-05-15T11:51:54.949Z,11.88
2019-05-15T11:52:54.941Z,11.85
2019-05-15T11:53:54.930Z,11.93
2019-05-15T11:54:55.262Z,11.93
2019-05-15T11:55:54.918Z,11.84
2019-05-15T11:56:54.903Z,11.72
2019-05-15T11:57:55.745Z,11.60
2019-05-15T11:58:54.877Z,11.56
2019-05-15T11:59:55.722Z,11.56
2019-05-15T12:00:54.865Z,11.64
2019-05-15T12:01:54.837Z,11.81
2019-05-15T12:02:54.827Z,11.93
2019-05-15T12:03:54.807Z,12.07
2019-05-15T12:04:54.808Z,12.19
2019-05-15T12:05:54.817Z,12.21
2019-05-15T12:06:59.721Z,12.21
2019-05-15T12:07:57.788Z,12.22
2019-05-15T12:08:54.758Z,12.25
2019-05-15T12:09:54.748Z,12.18
2019-05-15T12:10:54.765Z,12.15
2019-05-15T12:11:54.731Z,12.16
2019-05-15T12:12:54.706Z,12.11
2019-05-15T12:13:54.697Z,12.08
2019-05-15T12:14:54.687Z,12.13
2019-05-15T12:15:54.677Z,12.18
2019-05-15T12:17:06.860Z,12.22
2019-05-15T12:17:55.655Z,12.23
2019-05-15T12:18:54.638Z,12.19
2019-05-15T12:19:56.759Z,12.08
2019-05-15T12:20:55.615Z,12.04
2019-05-15T12:21:54.616Z,12.08
2019-05-15T12:22:54.598Z,12.15
2019-05-15T12:23:54.585Z,12.18
2019-05-15T12:24:54.569Z,12.11
2019-05-15T12:25:54.669Z,11.98
2019-05-15T12:26:54.555Z,12.00
2019-05-15T12:27:54.547Z,12.03
2019-05-15T12:28:54.526Z,12.05
2019-05-15T12:29:54.505Z,12.08
2019-05-15T12:30:54.495Z,12.08
2019-05-15T12:31:54.494Z,12.00
2019-05-15T12:32:54.484Z,11.98
2019-05-15T12:33:54.457Z,11.93
2019-05-15T12:34:54.449Z,11.84
2019-05-15T12:35:54.445Z,11.79
2019-05-15T12:37:55.437Z,11.88
2019-05-15T12:38:54.433Z,12.03
2019-05-15T12:59:55.142Z,12.26
2019-05-15T13:00:54.140Z,12.22
2019-05-15T13:01:54.134Z,12.26
2019-05-15T13:02:54.125Z,12.34
2019-05-15T13:03:54.101Z,12.31
2019-05-15T13:04:54.086Z,12.41
2019-05-15T13:05:54.072Z,12.52
2019-05-15T13:07:11.828Z,12.62
2019-05-15T13:07:55.050Z,12.70
2019-05-15T13:08:54.039Z,12.73
2019-05-15T13:09:54.021Z,12.80
2019-05-15T13:10:54.011Z,12.95
2019-05-15T13:11:54.012Z,13.03
2019-05-15T13:13:00.873Z,13.10
2019-05-15T13:13:54.969Z,13.12
2019-05-15T13:14:53.969Z,13.16
2019-05-15T13:15:53.951Z,13.21
2019-05-15T13:16:53.950Z,13.17
2019-05-15T13:17:54.133Z,13.09
2019-05-15T13:18:53.912Z,12.89
2019-05-15T13:19:53.901Z,12.84
2019-05-15T13:20:56.132Z,12.95
2019-05-15T13:21:53.890Z,13.03
2019-05-15T13:22:53.861Z,13.13
2019-05-15T13:23:53.850Z,13.35
2019-05-15T13:24:53.839Z,13.55
2019-05-15T13:25:53.832Z,13.65
2019-05-15T13:26:53.811Z,13.63
2019-05-15T13:27:53.809Z,13.76
2019-05-15T13:28:53.790Z,13.94
2019-05-15T13:29:53.779Z,14.21
2019-05-15T13:30:53.767Z,14.42
2019-05-15T13:31:53.754Z,14.39